• Join FlightAware (Why Join?)
  • Login
  • US Flag 
01:16AM EDT


 

Airport Tracker/Info


-or-


 

Live Flight TrackerFlight Track Log ✈ RPA3396 ✈ 11-Jun-2013 ✈ KDCA - KALB

Flight Track Log - Related Links

Times and Time Zones

All times are in EDT time to prevent confusion due to time zone crossing. See the RPA3396 flight status page for this flight to view local times or setup timezone preferences in your user account.

Time Position Orientation Groundspeed Altitude Reporting Facility
EDT Latitude Longitude Course Direction KTS MPH feet Rate Location/Type
04:29PM 38.8753 -77.0528 38° Northeast 156 180 1,200  Level Washington Center
04:29PM 38.9000 -77.0833 316° Northwest 186 214 2,400 2,280 Climbing Potomac TRACON
04:30PM 38.9500 -77.1333 322° Northwest 236 272 5,000 2,820 Climbing Potomac TRACON
04:31PM 38.9906 -76.6283 67° East  Level FlightAware Approximate
04:31PM 39.0000 -77.1500 345° North 276 318 7,800  Level Potomac TRACON
04:32PM 39.0430 -76.4925 63° Northeast  Level FlightAware Approximate
04:32PM 39.0333 -77.0500 67° East 318 366 10,700  Level Potomac TRACON
04:33PM 39.0988 -76.3584 61° Northeast  Level FlightAware Approximate
04:33PM 39.0500 -76.9333 80° East 350 403 12,600  Level Potomac TRACON
04:34PM 39.1425 -76.2242 38° Northeast  Level FlightAware Approximate
04:36PM 39.0944 -76.6214 80° East 366 421 17,700  Level Washington Center
04:37PM 39.1122 -76.4903 80° East 371 427 19,000 660 Climbing Washington Center
04:38PM 39.1297 -76.3542 81° East 376 433 19,000  Level Washington Center
04:39PM 39.1494 -76.2153 80° East 382 440 19,000 540 Level Washington Center
04:40PM 39.1686 -76.0817 79° East 382 440 20,100 960 Climbing Washington Center
04:41PM 39.1858 -75.9397 81° East 393 452 21,000 660 Climbing Washington Center
04:42PM 39.2342 -75.8194 63° Northeast 387 445 21,500 1,140 Climbing Washington Center
04:43PM 39.3114 -75.7258 43° Northeast 366 421 23,300 1,620 Climbing Washington Center
04:44PM 39.3886 -75.6264 45° Northeast 374 430 24,800 1,440 Climbing Washington Center
04:45PM 39.4678 -75.5244 45° Northeast 385 443 26,200 1,380 Climbing Washington Center
04:46PM 39.5489 -75.4219 44° Northeast 395 455 27,600 1,200 Climbing Washington Center
04:47PM 39.6319 -75.3114 46° Northeast 406 467 28,700 840 Climbing Washington Center
04:47PM 39.6806 -75.2458 46° Northeast 412 474 29,000 120 Climbing New York Center
04:48PM 39.7667 -75.1189 49° Northeast 436 502 29,000  Level New York Center
04:49PM 39.8497 -75.0078 46° Northeast 436 502 29,000  Level New York Center
04:50PM 39.9350 -74.8994 44° Northeast 430 495 29,000  Level New York Center
04:51PM 40.0219 -74.7989 42° Northeast 415 478 29,000  Level New York Center
04:52PM 40.1000 -74.7031 43° Northeast 410 472 29,000  Level New York Center
04:53PM 40.1956 -74.5889 42° Northeast 410 472 29,000  Level New York Center
04:54PM 40.2867 -74.4794 42° Northeast 423 487 29,000 -180 Level New York Center
04:55PM 40.3733 -74.3725 43° Northeast 423 487 28,700 -900 Descending New York Center
04:56PM 40.4600 -74.2653 43° Northeast 423 487 27,300 -1,200 Descending New York Center
04:57PM 40.5461 -74.1631 42° Northeast 423 487 26,300 -1,080 Descending New York Center
04:58PM 40.6306 -74.0578 43° Northeast 417 480 25,200 -960 Descending New York Center
05:00PM 40.7611 -73.9033 42° Northeast 426 490 24,000 -480 Descending Boston Center
05:01PM 40.8417 -73.8064 42° Northeast 406 467 24,000 -180 Level Boston Center
05:02PM 40.9219 -73.7064 43° Northeast 399 459 23,700 -540 Descending Boston Center
05:03PM 41.0022 -73.6089 42° Northeast 393 452 23,000 -480 Descending Boston Center
05:04PM 41.0822 -73.5114 43° Northeast 388 447 22,800 -900 Descending Boston Center
05:05PM 41.1603 -73.4161 43° Northeast 388 447 21,300 -900 Descending Boston Center
05:06PM 41.2361 -73.3178 44° Northeast 388 447 21,000 -180 Descending Boston Center
05:07PM 41.3203 -73.2306 38° Northeast 383 441 21,000 -180 Level Boston Center
05:08PM 41.4139 -73.2261 North 339 390 20,700 -540 Descending Boston Center
05:09PM 41.5081 -73.1858 18° North 334 384 20,000 -480 Descending Boston Center
05:10PM 41.5958 -73.1453 19° North 334 384 19,800 -600 Descending Boston Center
05:11PM 41.6858 -73.0989 21° North 339 390 18,800 -1,260 Descending Boston Center
05:12PM 41.7753 -73.1136 353° North 334 384 17,300 -1,380 Descending Boston Center
05:13PM 41.8519 -73.1675 332° Northwest 318 366 16,100 -1,200 Descending Boston Center
05:14PM 41.9203 -73.2325 325° Northwest 305 351 15,000 -660 Descending Boston Center
05:15PM 41.9719 -73.3086 312° West 285 328 14,800 -840 Descending Boston Center
05:16PM 41.9903 -73.3561 297° West 267 307 13,700 -1,980 Descending Boston Center
05:16PM 42.0067 -73.3872 305° West 280 322 12,900 -1,680 Descending Boston Center
05:17PM 42.0417 -73.4325 316° Northwest 278 320 12,000 -900 Descending Boston Center
05:17PM 42.0664 -73.4636 317° Northwest 274 315 12,000  Level Boston Center
05:18PM 42.0975 -73.5006 319° Northwest 269 310 12,000 -300 Level Boston Center
05:18PM 42.1286 -73.5206 335° Northwest 269 310 11,700 -1,020 Descending Boston Center
05:19PM 42.1761 -73.5411 342° North 281 323 11,000 -720 Descending Boston Center
05:19PM 42.2031 -73.5556 338° Northwest 268 308 11,000 -900 Level Boston Center
05:20PM 42.2425 -73.5786 337° Northwest 269 310 10,100 -1,740 Descending Boston Center
05:20PM 42.2694 -73.5989 331° Northwest 268 308 9,300 -1,740 Descending Boston Center
05:21PM 42.3128 -73.6278 334° Northwest 261 300 8,200 -1,320 Descending Boston Center
05:21PM 42.3211 -73.6364 323° Northwest 268 308 8,000 -1,440 Descending Boston Center
05:22PM 42.3792 -73.6739 334° Northwest 259 298 6,800 -1,500 Descending Boston Center
05:22PM 42.3936 -73.6856 329° Northwest 250 288 6,500 -1,200 Descending Boston Center
05:23PM 42.4350 -73.7144 333° Northwest 214 246 5,600 -1,140 Descending Boston Center
05:23PM 42.4411 -73.7172 341° North 221 254 5,400 -1,500 Descending Boston Center
05:24PM 42.4844 -73.7492 331° Northwest 182 209 4,100 -1,740 Descending Boston Center
05:24PM 42.4950 -73.7522 348° North 202 232 3,700 -1,440 Descending Boston Center
05:25PM 42.5300 -73.7811 329° Northwest 185 213 2,700 -1,140 Descending Boston Center
05:25PM 42.5342 -73.7811 360° North 187 215 2,600 -720 Descending Boston Center
05:26PM 42.5736 -73.7989 342° North 174 200 2,000 -840 Descending Boston Center